Time;durP1;ratioP1;P1;durP2;ratioP2;P2;SDS_P1;SDS_P2;PMS_P1;PMS_P2;Temp;Humidity;BMP_temperature;BMP_pressure;BME280_temperature;BME280_humidity;BME280_pressure;Samples;Min_cycle;Max_cycle;Signal;HPM_P1;HPM_P2
2022/11/21 00:00:48;;;;;;;1999.90;999.90;;;0.40;99.90;;;;;;4953167;28;20043;-79
2022/11/21 00:03:14;;;;;;;1999.90;999.90;;;0.40;99.90;;;;;;4951455;28;20053;-79
2022/11/21 00:05:45;;;;;;;1999.90;999.90;;;0.40;99.90;;;;;;4952631;28;20472;-79
2022/11/21 00:08:13;;;;;;;1999.90;999.90;;;0.40;99.90;;;;;;4936604;28;20147;-79
2022/11/21 00:10:39;;;;;;;1999.90;999.90;;;0.60;99.90;;;;;;4967349;28;20050;-79
2022/11/21 00:13:06;;;;;;;1999.90;999.90;;;0.40;99.90;;;;;;4971209;28;20063;-79
2022/11/21 00:15:34;;;;;;;1999.90;999.90;;;0.30;99.90;;;;;;4971026;28;20051;-79
2022/11/21 00:18:02;;;;;;;1999.90;999.90;;;0.30;99.90;;;;;;4936704;28;20047;-79
2022/11/21 00:20:27;;;;;;;1999.90;999.90;;;0.30;99.90;;;;;;4961352;28;20055;-79
2022/11/21 00:22:54;;;;;;;1999.90;999.90;;;0.30;99.90;;;;;;4950194;28;20043;-79
2022/11/21 00:25:19;;;;;;;1999.90;999.90;;;0.30;99.90;;;;;;4947559;28;20155;-80
2022/11/21 00:27:45;;;;;;;1999.90;999.90;;;0.40;99.90;;;;;;4955201;28;20074;-79
2022/11/21 00:30:11;;;;;;;1999.90;999.90;;;0.30;99.90;;;;;;4971516;28;20047;-79
2022/11/21 00:32:37;;;;;;;1999.90;999.90;;;0.30;99.90;;;;;;4970755;28;20047;-79
2022/11/21 00:35:04;;;;;;;1999.90;999.90;;;0.30;99.90;;;;;;4971494;28;20077;-79
2022/11/21 00:37:32;;;;;;;1999.90;999.90;;;0.30;99.90;;;;;;4956051;28;20130;-79
2022/11/21 00:39:57;;;;;;;1999.90;999.90;;;0.30;99.90;;;;;;4953673;28;20110;-79
2022/11/21 00:42:23;;;;;;;1999.90;999.90;;;0.20;99.90;;;;;;4969934;28;20074;-79
2022/11/21 00:44:49;;;;;;;1999.90;999.90;;;0.20;99.90;;;;;;4971348;28;20054;-79
2022/11/21 00:47:14;;;;;;;1999.90;999.90;;;0.20;99.90;;;;;;4955354;28;20049;-79
2022/11/21 00:49:40;;;;;;;1999.90;999.90;;;0.10;99.90;;;;;;4971031;28;20058;-79
2022/11/21 00:52:06;;;;;;;1999.90;999.90;;;0.00;99.90;;;;;;4970237;28;20078;-79
2022/11/21 00:54:31;;;;;;;1999.90;999.90;;;0.00;99.90;;;;;;4970827;28;20065;-79
2022/11/21 00:56:57;;;;;;;1999.90;999.90;;;-0.10;99.90;;;;;;4955819;28;20137;-79
2022/11/21 00:59:23;;;;;;;1999.90;999.90;;;-0.10;99.90;;;;;;4969795;28;20082;-79
2022/11/21 01:01:48;;;;;;;1999.90;999.90;;;-0.20;99.90;;;;;;4971321;28;20128;-79
2022/11/21 01:04:14;;;;;;;1999.90;999.90;;;-0.30;99.90;;;;;;4952743;28;20123;-80
2022/11/21 01:06:40;;;;;;;1999.90;999.90;;;-0.40;99.90;;;;;;4939576;28;20055;-79
2022/11/21 01:09:06;;;;;;;1999.90;999.90;;;-0.40;99.90;;;;;;4968308;28;20049;-79
2022/11/21 01:11:31;;;;;;;1999.90;999.90;;;-0.50;99.90;;;;;;4971098;28;20485;-79
2022/11/21 01:13:57;;;;;;;1999.90;999.90;;;-0.60;99.90;;;;;;4970259;28;20054;-79
2022/11/21 01:16:25;;;;;;;1999.90;999.90;;;-0.60;99.90;;;;;;4958634;28;20043;-79
2022/11/21 01:18:51;;;;;;;1999.90;999.90;;;-0.70;99.90;;;;;;4966599;28;20098;-79
2022/11/21 01:21:23;;;;;;;1999.90;999.90;;;-0.80;99.90;;;;;;4954312;28;20051;-80
2022/11/21 01:23:49;;;;;;;1999.90;999.90;;;-0.80;99.90;;;;;;4951584;28;20131;-79
2022/11/21 01:26:20;;;;;;;1999.90;999.90;;;-0.80;99.90;;;;;;4961853;28;20054;-79
2022/11/21 01:28:46;;;;;;;1999.90;999.90;;;-0.90;99.90;;;;;;4965602;28;20125;-79
2022/11/21 01:31:20;;;;;;;1999.90;999.90;;;-1.00;99.90;;;;;;4970304;28;20051;-79
2022/11/21 01:33:46;;;;;;;1999.90;999.90;;;-1.10;99.90;;;;;;4970034;28;20401;-80
2022/11/21 01:36:19;;;;;;;1999.90;999.90;;;-1.10;99.90;;;;;;4944525;28;20035;-79
2022/11/21 01:38:47;;;;;;;1999.90;999.90;;;-1.10;99.90;;;;;;4965594;28;20081;-79
2022/11/21 01:41:17;;;;;;;1999.90;999.90;;;-1.10;99.90;;;;;;4953803;28;20051;-77
2022/11/21 01:43:43;;;;;;;1999.90;999.90;;;-1.10;99.90;;;;;;4952521;28;20161;-79
2022/11/21 01:46:11;;;;;;;1999.90;999.90;;;-1.20;99.90;;;;;;4944765;28;20138;-80
2022/11/21 01:48:49;;;;;;;1999.90;999.90;;;-1.20;99.90;;;;;;4942522;29;20430;-79
2022/11/21 01:51:41;;;;;;;1999.90;999.90;;;-1.20;99.90;;;;;;4951628;29;20146;-79
2022/11/21 01:54:44;;;;;;;1999.90;999.90;;;-1.20;99.90;;;;;;4943612;29;20047;-79
2022/11/21 01:57:24;;;;;;;1999.90;999.90;;;-1.30;99.90;;;;;;4934015;29;20189;-78
2022/11/21 02:00:05;;;;;;;1999.90;999.90;;;-1.30;99.90;;;;;;4951625;29;20198;-79
2022/11/21 02:02:41;;;;;;;;;;;-1.30;99.90;;;;;;4918067;29;20047;-79
2022/11/21 02:05:12;;;;;;;1999.90;999.90;;;-1.40;99.90;;;;;;4951191;29;19929;-79
2022/11/21 02:07:40;;;;;;;1999.90;999.90;;;-1.40;99.90;;;;;;4935253;29;20428;-79
2022/11/21 02:10:07;;;;;;;1999.90;999.90;;;-1.40;99.90;;;;;;4962166;28;20050;-79
2022/11/21 02:12:47;;;;;;;1999.90;999.90;;;-1.40;99.90;;;;;;4973417;28;20053;-78
2022/11/21 02:15:12;;;;;;;1999.90;999.90;;;-1.50;99.90;;;;;;4974316;28;20047;-78
2022/11/21 02:17:38;;;;;;;1999.90;999.90;;;-1.50;99.90;;;;;;4940676;28;21375;-80
2022/11/21 02:20:10;;;;;;;1999.90;999.90;;;-1.50;99.90;;;;;;4950131;29;20532;-80
2022/11/21 02:22:57;;;;;;;1999.90;999.90;;;-1.60;99.90;;;;;;4953422;29;20265;-80
2022/11/21 02:25:26;;;;;;;1999.90;999.90;;;-1.60;99.90;;;;;;4967592;28;20082;-79
2022/11/21 02:27:57;;;;;;;1999.90;999.90;;;-1.60;99.90;;;;;;4957381;28;20445;-79
2022/11/21 02:30:23;;;;;;;1999.90;999.90;;;-1.50;99.90;;;;;;4973919;28;20055;-79
2022/11/21 02:32:49;;;;;;;1999.90;999.90;;;-1.40;99.90;;;;;;4972548;28;20062;-79
2022/11/21 02:35:16;;;;;;;1999.90;999.90;;;-1.40;99.90;;;;;;4956269;28;20409;-79
2022/11/21 02:37:49;;;;;;;1999.90;999.90;;;-1.40;99.90;;;;;;4925004;28;20055;-80
2022/11/21 02:40:21;;;;;;;1999.90;999.90;;;-1.50;99.90;;;;;;4940287;28;20062;-79
2022/11/21 02:43:09;;;;;;;1999.90;999.90;;;-1.50;99.90;;;;;;4971965;28;20429;-79
2022/11/21 02:45:42;;;;;;;1999.90;999.90;;;-1.50;99.90;;;;;;4973289;28;20047;-79
2022/11/21 02:48:09;;;;;;;1999.90;999.90;;;-1.40;99.90;;;;;;4939344;28;20435;-79
2022/11/21 02:50:40;;;;;;;1999.90;999.90;;;-1.30;99.90;;;;;;4973367;28;20545;-80
2022/11/21 02:53:09;;;;;;;1999.90;999.90;;;-1.30;99.90;;;;;;4971121;28;20051;-80
2022/11/21 02:55:35;;;;;;;1350.10;681.60;;;-1.20;99.90;;;;;;4955631;28;20137;-79
2022/11/21 02:58:01;;;;;;;1999.90;999.90;;;-1.10;99.90;;;;;;4956649;28;20057;-79
2022/11/21 03:00:26;;;;;;;1999.90;999.90;;;-1.10;99.90;;;;;;4971891;28;20057;-79
2022/11/21 03:02:53;;;;;;;1999.90;999.90;;;-1.10;99.90;;;;;;4972461;28;20497;-79
2022/11/21 03:05:19;;;;;;;1999.90;999.90;;;-1.10;99.90;;;;;;4972792;28;20131;-80
2022/11/21 03:07:45;;;;;;;1999.90;999.90;;;-1.00;99.90;;;;;;4956239;28;20039;-79
2022/11/21 03:10:12;;;;;;;1999.90;999.90;;;-1.00;99.90;;;;;;4972935;28;20047;-79
2022/11/21 03:12:39;;;;;;;1999.90;999.90;;;-1.10;99.90;;;;;;4971747;28;20057;-79
2022/11/21 03:15:06;;;;;;;1999.90;999.90;;;-1.10;99.90;;;;;;4955478;28;20055;-80
2022/11/21 03:17:33;;;;;;;1999.90;999.90;;;-1.10;99.90;;;;;;4956679;28;20203;-79
2022/11/21 03:19:58;;;;;;;1999.90;999.90;;;-1.10;99.90;;;;;;4966316;28;20065;-79
2022/11/21 03:22:25;;;;;;;1999.90;999.90;;;-1.10;99.90;;;;;;4935016;28;20051;-79
2022/11/21 03:24:50;;;;;;;1999.90;999.90;;;-1.10;99.90;;;;;;4962510;28;20047;-79
2022/11/21 03:27:16;;;;;;;1999.90;999.90;;;-1.20;99.90;;;;;;4956267;28;20051;-79
2022/11/21 03:29:41;;;;;;;1999.90;999.90;;;-1.20;99.90;;;;;;4955087;28;20055;-80
2022/11/21 03:32:07;;;;;;;1999.90;999.90;;;-1.30;99.90;;;;;;4970825;28;20047;-79
2022/11/21 03:34:33;;;;;;;1999.90;999.90;;;-1.30;99.90;;;;;;4969949;28;20051;-79
2022/11/21 03:36:59;;;;;;;1999.90;999.90;;;-1.30;99.90;;;;;;4936646;29;20054;-79
2022/11/21 03:39:24;;;;;;;1999.90;999.90;;;-1.20;99.90;;;;;;4952786;28;20066;-79
2022/11/21 03:41:50;;;;;;;1999.90;999.90;;;-1.30;99.90;;;;;;4954926;28;20047;-79
2022/11/21 03:44:16;;;;;;;1999.90;999.90;;;-1.20;99.90;;;;;;4971004;28;20345;-79
2022/11/21 03:46:43;;;;;;;1999.90;999.90;;;-1.20;99.90;;;;;;4958455;28;20923;-78
2022/11/21 03:49:10;;;;;;;1999.90;999.90;;;-1.30;99.90;;;;;;4953555;28;20061;-79
2022/11/21 03:51:36;;;;;;;1999.90;999.90;;;-1.30;99.90;;;;;;4972232;28;20058;-79
2022/11/21 03:54:03;;;;;;;1999.90;999.90;;;-1.30;99.90;;;;;;4971100;28;20050;-78
2022/11/21 03:56:28;;;;;;;1999.90;999.90;;;-1.40;99.90;;;;;;4942992;28;20050;-80
2022/11/21 03:58:54;;;;;;;1999.90;999.90;;;-1.40;99.90;;;;;;4963442;28;20051;-79
2022/11/21 04:01:20;;;;;;;1999.90;999.90;;;-1.50;99.90;;;;;;4952000;28;20404;-78
2022/11/21 04:03:46;;;;;;;1999.90;999.90;;;-1.50;99.90;;;;;;4978295;28;20555;-79
2022/11/21 04:06:14;;;;;;;1999.90;999.90;;;-1.60;99.90;;;;;;4958929;28;20125;-79
2022/11/21 04:08:40;;;;;;;1999.90;999.90;;;-1.60;99.90;;;;;;4964128;28;20101;-78
2022/11/21 04:11:06;;;;;;;1999.90;999.90;;;-1.60;99.90;;;;;;4936785;29;20118;-78
2022/11/21 04:13:32;;;;;;;1999.90;999.90;;;-1.70;99.90;;;;;;4951282;28;20498;-79
2022/11/21 04:15:58;;;;;;;1999.90;999.90;;;-1.70;99.90;;;;;;4964831;28;20097;-80
2022/11/21 04:18:24;;;;;;;1999.90;999.90;;;-1.70;99.90;;;;;;4945683;28;20090;-78
2022/11/21 04:20:56;;;;;;;1999.90;999.90;;;-1.80;99.90;;;;;;4963964;28;20062;-80
2022/11/21 04:23:21;;;;;;;1999.90;999.90;;;-1.80;99.90;;;;;;4967702;28;20089;-78
2022/11/21 04:25:47;;;;;;;1999.90;999.90;;;-1.70;99.90;;;;;;4970079;28;20591;-78
2022/11/21 04:28:13;;;;;;;1999.90;999.90;;;-1.70;99.90;;;;;;4954876;28;20324;-78
2022/11/21 04:30:39;;;;;;;1999.90;999.90;;;-1.70;99.90;;;;;;4971833;28;20054;-78
2022/11/21 04:33:04;;;;;;;1999.90;999.90;;;-1.60;99.90;;;;;;4969691;28;20054;-78
2022/11/21 04:35:30;;;;;;;1999.90;999.90;;;-1.50;99.90;;;;;;4971243;28;20501;-79
2022/11/21 04:37:55;;;;;;;1999.90;999.90;;;-1.40;99.90;;;;;;4955067;28;20413;-78
2022/11/21 04:40:21;;;;;;;1999.90;999.90;;;-1.30;99.90;;;;;;4971705;28;20397;-78
2022/11/21 04:42:47;;;;;;;1999.90;999.90;;;-1.30;99.90;;;;;;4960361;28;20051;-79
2022/11/21 04:45:15;;;;;;;1999.90;999.90;;;-1.30;99.90;;;;;;4971321;28;20054;-78
2022/11/21 04:47:44;;;;;;;1999.90;999.90;;;-1.30;99.90;;;;;;4954738;28;20051;-78
2022/11/21 04:50:12;;;;;;;1999.90;999.90;;;-1.20;99.90;;;;;;4970953;28;20307;-78
2022/11/21 04:52:37;;;;;;;1999.90;999.90;;;-1.30;99.90;;;;;;4970088;28;20537;-78
2022/11/21 04:55:04;;;;;;;1999.90;999.90;;;-1.40;99.90;;;;;;4971630;28;20054;-79
2022/11/21 04:57:31;;;;;;;1999.90;999.90;;;-1.40;99.90;;;;;;4937600;28;20042;-78
2022/11/21 04:59:57;;;;;;;1999.90;999.90;;;-1.50;99.90;;;;;;4971450;28;20078;-78
2022/11/21 05:02:23;;;;;;;1999.90;999.90;;;-1.60;99.90;;;;;;4952556;28;20148;-78
2022/11/21 05:04:49;;;;;;;1999.90;999.90;;;-1.60;99.90;;;;;;4937977;28;20054;-78
2022/11/21 05:07:15;;;;;;;1999.90;999.90;;;-1.50;99.90;;;;;;4921996;28;20055;-78
2022/11/21 05:09:41;;;;;;;1999.90;999.90;;;-1.60;99.90;;;;;;4970869;28;20106;-77
2022/11/21 05:14:53;;;;;;;1999.90;999.90;;;-1.60;99.90;;;;;;4956125;28;20125;-78
2022/11/21 05:17:19;;;;;;;1999.90;999.90;;;-1.70;99.90;;;;;;4954753;28;20047;-78
2022/11/21 05:19:45;;;;;;;1999.90;999.90;;;-1.70;99.90;;;;;;4966672;28;20047;-78
2022/11/21 05:22:11;;;;;;;1999.90;999.90;;;-1.80;99.90;;;;;;4933947;28;20047;-78
2022/11/21 05:24:37;;;;;;;1999.90;999.90;;;-1.80;99.90;;;;;;4941372;28;20047;-79
2022/11/21 05:27:03;;;;;;;1999.90;999.90;;;-1.90;99.90;;;;;;4955498;28;20047;-78
2022/11/21 05:29:28;;;;;;;1999.90;999.90;;;-1.90;99.90;;;;;;4969482;28;20089;-78
2022/11/21 05:31:54;;;;;;;1999.90;999.90;;;-2.00;99.90;;;;;;4971387;28;20078;-79
2022/11/21 05:34:20;;;;;;;1999.90;999.90;;;-2.00;99.90;;;;;;4970251;28;20469;-78
2022/11/21 05:36:45;;;;;;;1999.90;999.90;;;-2.10;99.90;;;;;;4955699;28;20507;-78
2022/11/21 05:39:11;;;;;;;1999.90;999.90;;;-2.10;99.90;;;;;;4969830;28;20129;-78
2022/11/21 05:41:37;;;;;;;1999.90;999.90;;;-1.90;99.90;;;;;;4970888;28;20090;-78
2022/11/21 05:44:02;;;;;;;1999.90;999.90;;;-2.20;99.90;;;;;;4970797;28;20303;-78
2022/11/21 05:46:28;;;;;;;1999.90;999.90;;;-2.30;99.90;;;;;;4962160;28;20073;-78
2022/11/21 05:48:54;;;;;;;1999.90;999.90;;;-2.40;99.90;;;;;;4970342;28;20043;-78
2022/11/21 05:51:20;;;;;;;1999.90;999.90;;;-2.40;99.90;;;;;;4974352;28;20050;-79
2022/11/21 05:53:47;;;;;;;1999.90;999.90;;;-2.50;99.90;;;;;;4956255;28;20059;-77
2022/11/21 05:56:17;;;;;;;1999.90;999.90;;;-2.50;99.90;;;;;;4965544;28;20382;-77
2022/11/21 05:58:44;;;;;;;1999.90;999.90;;;-2.60;99.90;;;;;;4951610;28;20050;-78
2022/11/21 06:01:11;;;;;;;1999.90;999.90;;;-2.70;99.90;;;;;;4957125;28;20398;-78
2022/11/21 06:03:39;;;;;;;1999.90;999.90;;;-2.70;99.90;;;;;;4973135;28;20125;-78
2022/11/21 06:06:07;;;;;;;1999.90;999.90;;;-2.70;99.90;;;;;;4956863;28;20397;-78
2022/11/21 06:08:44;;;;;;;1999.90;999.90;;;-2.70;99.90;;;;;;4963941;28;20069;-78
2022/11/21 06:11:15;;;;;;;1999.90;999.90;;;-2.70;99.90;;;;;;4957879;28;20075;-78
2022/11/21 06:13:41;;;;;;;144.80;101.95;;;-2.70;99.90;;;;;;4956457;28;20118;-78
2022/11/21 06:16:08;;;;;;;72.97;52.03;;;-2.70;99.90;;;;;;4969460;28;20109;-81
2022/11/21 06:18:37;;;;;;;78.97;55.60;;;-2.70;99.90;;;;;;4947407;28;20054;-77
2022/11/21 06:21:23;;;;;;;79.97;58.70;;;-2.70;99.90;;;;;;4959277;28;20121;-78
2022/11/21 06:23:54;;;;;;;69.33;55.33;;;-2.60;99.90;;;;;;4954725;28;20059;-80
2022/11/21 06:26:22;;;;;;;67.40;53.50;;;-2.70;99.90;;;;;;4945682;28;20051;-78
2022/11/21 06:28:49;;;;;;;67.83;54.33;;;-2.70;99.90;;;;;;4952328;28;20047;-78
2022/11/21 06:31:19;;;;;;;68.13;56.07;;;-2.80;99.90;;;;;;4973974;28;20050;-77
2022/11/21 06:33:46;;;;;;;67.97;54.30;;;-2.80;99.90;;;;;;4973084;28;20148;-77
2022/11/21 06:36:14;;;;;;;71.57;56.23;;;-2.80;99.90;;;;;;4966210;28;20077;-77
2022/11/21 06:38:40;;;;;;;64.00;54.27;;;-2.80;99.90;;;;;;4967011;28;20054;-77
2022/11/21 06:41:14;;;;;;;71.73;55.33;;;-2.90;99.90;;;;;;4970624;28;20098;-78
2022/11/21 06:43:41;;;;;;;65.83;52.73;;;-2.90;99.90;;;;;;4957705;28;20482;-80
2022/11/21 06:46:07;;;;;;;708.77;351.07;;;-2.90;99.90;;;;;;4949235;28;20062;-82
2022/11/21 06:48:34;;;;;;;64.80;42.73;;;-3.00;99.90;;;;;;4959555;28;20042;-78
2022/11/21 06:51:16;;;;;;;46.97;27.73;;;-3.00;99.90;;;;;;4970106;28;20066;-78
2022/11/21 06:53:42;;;;;;;48.33;28.00;;;-3.10;99.90;;;;;;4955121;28;20498;-77
2022/11/21 06:56:08;;;;;;;51.93;29.37;;;-3.00;99.90;;;;;;4929011;28;20062;-78
2022/11/21 06:58:34;;;;;;;50.40;29.10;;;-3.10;99.90;;;;;;4946087;28;20058;-80
2022/11/21 07:01:08;;;;;;;54.27;29.90;;;-3.10;99.90;;;;;;4955538;28;20093;-78
2022/11/21 07:03:35;;;;;;;50.13;28.93;;;-3.20;99.90;;;;;;4972080;28;20046;-77
2022/11/21 07:06:01;;;;;;;53.47;29.23;;;-3.20;99.90;;;;;;4972932;28;20496;-77
2022/11/21 07:08:28;;;;;;;53.13;30.03;;;-3.20;99.90;;;;;;4956321;28;20762;-80
2022/11/21 07:10:54;;;;;;;57.70;30.03;;;-3.20;99.90;;;;;;4973557;28;20043;-78
2022/11/21 07:13:22;;;;;;;54.43;30.00;;;-3.30;99.90;;;;;;4954153;28;20051;-78
2022/11/21 07:15:50;;;;;;;54.90;29.93;;;-3.30;99.90;;;;;;4973113;28;20047;-77
2022/11/21 07:18:16;;;;;;;52.17;30.10;;;-3.40;99.90;;;;;;4955984;28;20051;-78
2022/11/21 07:20:43;;;;;;;55.13;30.90;;;-3.30;99.90;;;;;;4973062;28;20573;-77
2022/11/21 07:23:09;;;;;;;54.53;30.63;;;-3.30;99.90;;;;;;4971756;28;20093;-77
2022/11/21 07:25:34;;;;;;;56.87;31.07;;;-3.30;99.90;;;;;;4961190;28;20055;-77
2022/11/21 07:28:02;;;;;;;97.30;47.03;;;-3.20;99.90;;;;;;4945997;28;20112;-77
2022/11/21 07:30:29;;;;;;;60.00;31.90;;;-3.20;99.90;;;;;;4959883;28;20047;-77
2022/11/21 07:32:59;;;;;;;67.50;32.50;;;-3.20;99.90;;;;;;4954780;28;20043;-77
2022/11/21 07:35:25;;;;;;;57.47;29.97;;;-3.10;99.90;;;;;;4959394;28;20093;-77
2022/11/21 07:37:51;;;;;;;63.73;32.37;;;-3.10;99.90;;;;;;4938191;28;20047;-80
2022/11/21 07:40:17;;;;;;;68.27;35.03;;;-3.10;99.90;;;;;;4958192;28;20388;-77
2022/11/21 07:42:43;;;;;;;68.73;35.77;;;-3.00;99.90;;;;;;4961210;28;20043;-77
2022/11/21 07:45:09;;;;;;;60.37;32.93;;;-3.00;99.90;;;;;;4961204;28;20054;-77
2022/11/21 07:47:35;;;;;;;62.70;34.60;;;-2.90;99.90;;;;;;4943357;28;20045;-77
2022/11/21 07:50:01;;;;;;;93.57;42.97;;;-2.80;99.90;;;;;;4961141;28;20418;-78
2022/11/21 07:52:29;;;;;;;62.73;33.60;;;-2.70;99.90;;;;;;4962037;28;20384;-77
2022/11/21 07:54:55;;;;;;;67.17;35.40;;;-2.60;99.90;;;;;;4961053;28;20300;-77
2022/11/21 07:57:21;;;;;;;57.73;32.23;;;-2.60;99.90;;;;;;4942162;28;20077;-78
2022/11/21 07:59:47;;;;;;;67.40;33.97;;;-2.60;99.90;;;;;;4972564;28;20485;-77
2022/11/21 08:02:19;;;;;;;67.13;37.13;;;-2.60;99.90;;;;;;4956700;28;20043;-77
2022/11/21 08:04:45;;;;;;;77.27;39.13;;;-2.50;99.90;;;;;;4958965;28;20043;-79
2022/11/21 08:07:11;;;;;;;74.53;37.03;;;-2.40;99.90;;;;;;4942594;28;20600;-78
2022/11/21 08:09:37;;;;;;;77.70;38.03;;;-2.10;99.90;;;;;;4943050;28;20146;-78
2022/11/21 08:12:03;;;;;;;61.07;35.23;;;-1.90;99.90;;;;;;4956655;28;20082;-79
2022/11/21 08:14:28;;;;;;;62.10;35.70;;;-1.90;99.90;;;;;;4959832;28;20485;-78
2022/11/21 08:16:54;;;;;;;62.73;34.10;;;-1.80;99.90;;;;;;4931689;28;20047;-78
2022/11/21 08:19:19;;;;;;;67.70;34.80;;;-1.80;99.90;;;;;;4931454;28;20051;-80
2022/11/21 08:21:45;;;;;;;63.17;35.73;;;-1.80;99.90;;;;;;4916748;28;20090;-78
2022/11/21 08:24:13;;;;;;;60.67;34.87;;;-1.70;99.90;;;;;;4934518;28;20062;-81
2022/11/21 08:26:39;;;;;;;64.43;36.07;;;-1.60;99.90;;;;;;4921013;28;20051;-77
2022/11/21 08:29:05;;;;;;;104.93;58.80;;;-1.50;99.90;;;;;;4931748;28;20039;-78
2022/11/21 08:31:31;;;;;;;63.97;39.17;;;-1.40;99.90;;;;;;4937172;28;20617;-77
2022/11/21 08:33:57;;;;;;;72.97;43.43;;;-1.30;99.90;;;;;;4936043;28;20046;-78
2022/11/21 08:36:23;;;;;;;72.00;44.90;;;-1.30;99.90;;;;;;4924960;28;20079;-78
2022/11/21 08:38:49;;;;;;;78.77;43.67;;;-1.20;99.90;;;;;;4934068;28;20869;-79
2022/11/21 08:43:59;;;;;;;73.53;47.10;;;-1.00;99.90;;;;;;4935814;28;20062;-79
2022/11/21 08:46:27;;;;;;;71.87;46.33;;;-0.90;99.90;;;;;;4928222;28;20150;-78
2022/11/21 08:48:55;;;;;;;1999.90;999.90;;;-0.90;99.90;;;;;;4927520;28;20555;-78
2022/11/21 08:51:22;;;;;;;1999.90;999.90;;;-0.80;99.90;;;;;;4931998;28;20454;-79
2022/11/21 08:53:48;;;;;;;1999.90;999.90;;;-0.70;99.90;;;;;;4930654;28;20141;-80
2022/11/21 08:56:13;;;;;;;1999.90;999.90;;;-0.40;99.90;;;;;;4935589;28;20054;-78
2022/11/21 08:58:39;;;;;;;1999.90;999.90;;;-0.60;99.90;;;;;;4943050;28;20425;-79
2022/11/21 09:01:05;;;;;;;1999.90;999.90;;;-0.60;99.90;;;;;;4937215;28;20058;-82
2022/11/21 09:03:31;;;;;;;1999.90;999.90;;;-0.50;99.90;;;;;;4931363;28;20051;-79
2022/11/21 09:05:58;;;;;;;1999.90;999.90;;;-0.50;99.90;;;;;;4913992;28;20142;-78
2022/11/21 09:08:24;;;;;;;1999.90;999.90;;;-0.40;99.90;;;;;;4901834;28;20063;-81
2022/11/21 09:10:50;;;;;;;1999.90;999.90;;;-0.40;99.90;;;;;;4937414;28;20050;-78
2022/11/21 09:13:16;;;;;;;1999.90;999.90;;;-0.40;99.90;;;;;;4930135;28;20490;-79
2022/11/21 09:18:26;;;;;;;1999.90;999.90;;;-0.30;99.90;;;;;;4919333;28;20066;-79
2022/11/21 09:20:51;;;;;;;1999.90;999.90;;;-0.30;99.90;;;;;;4941511;28;20054;-79
2022/11/21 09:23:17;;;;;;;67.50;58.00;;;-0.20;99.90;;;;;;4935910;28;20059;-79
2022/11/21 09:25:44;;;;;;;72.87;57.13;;;-0.20;99.90;;;;;;4943010;28;20043;-81
2022/11/21 09:28:11;;;;;;;70.87;55.57;;;-0.20;99.90;;;;;;4902159;28;20109;-79
2022/11/21 09:30:37;;;;;;;66.67;52.23;;;-0.20;99.90;;;;;;4948839;28;20113;-78
2022/11/21 09:33:05;;;;;;;74.03;53.10;;;-0.20;99.90;;;;;;4945834;28;20062;-80
2022/11/21 09:35:31;;;;;;;69.77;51.53;;;-0.10;99.90;;;;;;4945264;28;20055;-81
2022/11/21 09:37:57;;;;;;;63.43;49.47;;;-0.10;99.90;;;;;;4938668;28;20598;-78
2022/11/21 09:40:24;;;;;;;69.53;51.53;;;0.00;99.90;;;;;;4945708;28;20224;-78
2022/11/21 09:43:06;;;;;;;64.67;48.60;;;0.00;99.90;;;;;;4933993;28;20085;-80
2022/11/21 09:45:47;;;;;;;66.47;50.93;;;0.00;99.90;;;;;;4952242;28;20110;-79
2022/11/21 09:48:21;;;;;;;64.07;48.20;;;0.10;99.90;;;;;;4918906;28;20500;-80
2022/11/21 09:50:58;;;;;;;68.80;48.97;;;0.10;99.90;;;;;;4925832;28;20699;-79
2022/11/21 09:53:32;;;;;;;66.30;48.50;;;0.20;99.90;;;;;;4935086;28;20062;-79
2022/11/21 09:56:05;;;;;;;63.27;45.50;;;0.20;99.90;;;;;;4921511;28;20448;-80
2022/11/21 09:58:40;;;;;;;61.43;46.57;;;0.30;99.90;;;;;;4918433;28;20054;-79
2022/11/21 10:01:11;;;;;;;55.73;34.10;;;0.40;99.90;;;;;;4937167;28;20058;-81
2022/11/21 10:03:48;;;;;;;59.83;34.97;;;0.40;99.90;;;;;;4954329;28;20506;-81
2022/11/21 10:06:22;;;;;;;64.50;37.93;;;0.50;99.90;;;;;;4946231;28;20433;-79
2022/11/21 10:09:03;;;;;;;53.83;34.47;;;0.70;99.90;;;;;;4949036;28;20397;-79
2022/11/21 10:12:35;;;;;;;49.10;31.38;;;0.80;99.90;;;;;;4936575;28;20059;-80
2022/11/21 10:14:53;;;;;;;57.70;34.10;;;0.90;99.90;;;;;;4936646;28;20064;-80
2022/11/21 10:17:40;;;;;;;40.13;25.42;;;0.90;99.90;;;;;;4931078;28;20059;-79
2022/11/21 10:20:14;;;;;;;50.90;30.43;;;0.90;99.90;;;;;;4944459;28;20502;-79
2022/11/21 10:22:48;;;;;;;47.03;30.60;;;0.90;99.90;;;;;;4916829;28;20138;-80
2022/11/21 10:25:19;;;;;;;48.70;30.27;;;0.80;99.90;;;;;;4942463;28;20473;-80
2022/11/21 10:28:01;;;;;;;36.92;22.45;;;0.80;99.90;;;;;;4918574;28;20054;-79
2022/11/21 10:30:28;;;;;;;53.47;31.20;;;0.70;99.90;;;;;;4920755;28;20065;-81
2022/11/21 10:32:58;;;;;;;47.87;30.53;;;0.80;99.90;;;;;;4948814;28;20074;-82
2022/11/21 10:35:39;;;;;;;46.67;29.50;;;0.80;99.90;;;;;;4946735;28;20054;-79
2022/11/21 10:38:19;;;;;;;50.25;30.38;;;1.00;99.90;;;;;;4920342;28;20050;-80
2022/11/21 10:40:56;;;;;;;44.97;29.97;;;1.00;99.90;;;;;;4946120;28;21569;-79
2022/11/21 10:46:07;;;;;;;47.60;28.90;;;0.80;99.90;;;;;;4943460;28;20635;-82
2022/11/21 10:48:33;;;;;;;50.77;30.87;;;0.70;99.90;;;;;;4906485;28;20046;-79
2022/11/21 10:51:38;;;;;;;50.33;31.47;;;0.70;99.90;;;;;;4934496;28;20067;-82
2022/11/21 10:56:52;;;;;;;47.97;30.23;;;1.00;99.90;;;;;;4919617;28;20199;-81
2022/11/21 10:59:26;;;;;;;49.07;29.87;;;1.40;99.90;;;;;;4918510;28;20468;-79
2022/11/21 11:02:15;;;;;;;47.07;30.20;;;2.00;99.90;;;;;;4936325;28;20062;-82
2022/11/21 11:04:41;;;;;;;40.67;27.10;;;2.90;99.90;;;;;;4931585;28;20047;-80
2022/11/21 11:07:19;;;;;;;34.90;23.80;;;3.60;99.90;;;;;;4919983;28;20071;-80
2022/11/21 11:09:46;;;;;;;40.40;28.43;;;4.10;99.90;;;;;;4916866;28;20055;-80
2022/11/21 11:12:18;;;;;;;39.23;26.23;;;4.90;99.90;;;;;;4934280;28;20069;-82
2022/11/21 11:14:50;;;;;;;51.90;33.10;;;4.20;99.90;;;;;;4935012;28;20058;-81
2022/11/21 11:17:16;;;;;;;34.87;24.37;;;4.10;99.90;;;;;;4920952;28;20061;-81
2022/11/21 11:20:23;;;;;;;38.53;25.50;;;4.30;99.90;;;;;;4948905;28;20050;-79
2022/11/21 11:22:48;;;;;;;27.30;19.80;;;4.70;99.90;;;;;;4947793;28;20130;-82
2022/11/21 11:25:14;;;;;;;25.37;18.97;;;5.10;99.90;;;;;;4939886;28;20126;-82
2022/11/21 11:27:40;;;;;;;26.67;20.07;;;5.50;99.90;;;;;;4918210;28;20157;-80
2022/11/21 11:30:07;;;;;;;23.03;18.20;;;5.50;99.90;;;;;;4918255;28;20035;-80
2022/11/21 11:32:38;;;;;;;24.43;18.20;;;5.10;99.90;;;;;;4933540;28;20704;-80
2022/11/21 11:35:13;;;;;;;;;;;5.40;99.90;;;;;;4919923;28;20047;-80
2022/11/21 11:37:40;;;;;;;24.33;18.30;;;5.30;99.90;;;;;;4904887;28;20269;-80
2022/11/21 11:40:28;;;;;;;25.77;17.33;;;4.70;99.90;;;;;;4934977;28;20098;-79
2022/11/21 11:50:10;;;;;;;25.47;18.63;;;4.50;99.90;;;;;;4888654;29;20164;-79
2022/11/21 11:52:23;;;;;;;29.10;20.60;;;4.00;99.90;;;;;;4891376;29;20174;-79
2022/11/21 11:54:56;;;;;;;28.00;19.60;;;4.00;99.90;;;;;;4923121;28;20399;-78
2022/11/21 11:57:22;;;;;;;25.17;18.43;;;3.80;99.90;;;;;;4922418;28;20115;-80
2022/11/21 12:00:03;;;;;;;27.93;20.23;;;3.80;99.90;;;;;;4940953;28;20070;-82
2022/11/21 12:02:46;;;;;;;27.25;19.63;;;4.00;99.90;;;;;;4940415;28;20497;-79
2022/11/21 12:05:26;;;;;;;24.00;17.53;;;3.90;99.90;;;;;;4937797;28;20058;-80
2022/11/21 12:08:15;;;;;;;28.00;18.80;;;4.00;99.90;;;;;;4898865;28;20047;-79
2022/11/21 12:13:46;;;;;;;27.10;18.37;;;3.40;99.90;;;;;;4949835;28;20138;-82
2022/11/21 12:16:13;;;;;;;27.07;18.70;;;3.10;99.90;;;;;;4943210;28;20059;-81
2022/11/21 12:18:54;;;;;;;28.57;20.27;;;3.50;99.90;;;;;;4943072;28;20062;-81
2022/11/21 12:21:22;;;;;;;28.50;19.08;;;3.00;99.90;;;;;;4916354;28;20209;-81
2022/11/21 12:23:50;;;;;;;26.07;18.30;;;2.90;99.90;;;;;;4934323;28;20047;-79
2022/11/21 12:26:39;;;;;;;25.33;18.03;;;2.80;99.90;;;;;;4924744;28;20121;-79
2022/11/21 12:29:36;;;;;;;26.83;18.47;;;2.90;99.90;;;;;;4927238;28;20718;-81
2022/11/21 12:32:30;;;;;;;28.90;19.13;;;2.80;99.90;;;;;;4930169;28;20059;-82
2022/11/21 12:34:55;;;;;;;28.30;18.53;;;2.70;99.90;;;;;;4917145;28;20051;-82
2022/11/21 12:38:09;;;;;;;25.20;18.30;;;2.60;99.90;;;;;;4933629;28;20057;-79
2022/11/21 12:40:46;;;;;;;28.63;19.87;;;2.60;99.90;;;;;;4877987;28;20403;-80
2022/11/21 12:43:34;;;;;;;26.07;18.30;;;2.60;99.90;;;;;;4938143;28;20057;-78
2022/11/21 12:46:09;;;;;;;30.13;19.60;;;2.60;99.90;;;;;;4948380;28;20059;-81
2022/11/21 12:54:50;;;;;;;;;;;2.70;99.90;;;;;;4937734;28;20588;-79
2022/11/21 12:57:16;;;;;;;;;;;2.90;99.90;;;;;;4934969;28;19941;-79